Time;durP1;ratioP1;P1;durP2;ratioP2;P2;SDS_P1;SDS_P2;PMS_P1;PMS_P2;Temp;Humidity;BMP_temperature;BMP_pressure;BME280_temperature;BME280_humidity;BME280_pressure;Samples;Min_cycle;Max_cycle;Signal;HPM_P1;HPM_P2
2023/03/29 00:00:24;;;;;;;12.48;6.45;;;8.30;73.60;;;;;;5029342;28;20083;-75
2023/03/29 00:02:50;;;;;;;10.70;5.95;;;8.20;73.60;;;;;;5028894;28;20029;-75
2023/03/29 00:05:21;;;;;;;12.05;6.07;;;8.30;73.60;;;;;;5010110;28;20171;-76
2023/03/29 00:07:52;;;;;;;10.30;5.90;;;8.20;73.70;;;;;;5026888;28;20069;-75
2023/03/29 00:10:21;;;;;;;11.45;6.38;;;8.20;73.70;;;;;;5026529;28;20146;-76
2023/03/29 00:12:47;;;;;;;10.20;5.68;;;8.30;73.70;;;;;;5021418;28;20038;-76
2023/03/29 00:15:13;;;;;;;11.68;6.10;;;8.30;73.70;;;;;;5026643;28;20038;-76
2023/03/29 00:17:39;;;;;;;11.15;5.03;;;8.30;73.60;;;;;;5024557;28;20049;-75
2023/03/29 00:20:09;;;;;;;10.07;5.50;;;8.30;73.70;;;;;;5026331;28;20021;-75
2023/03/29 00:22:36;;;;;;;11.68;6.13;;;8.20;73.60;;;;;;5028873;28;20044;-76
2023/03/29 00:25:02;;;;;;;12.75;6.55;;;8.20;73.90;;;;;;5031303;28;20033;-77
2023/03/29 00:27:28;;;;;;;10.70;6.13;;;8.30;73.90;;;;;;5023944;28;20050;-75
2023/03/29 00:29:55;;;;;;;10.13;5.40;;;8.30;74.00;;;;;;5033745;28;20078;-75
2023/03/29 00:32:21;;;;;;;10.52;6.18;;;8.30;73.80;;;;;;5025013;28;20166;-76
2023/03/29 00:34:49;;;;;;;13.32;6.80;;;8.30;73.80;;;;;;5019561;28;20045;-75
2023/03/29 00:37:17;;;;;;;9.73;5.35;;;8.30;73.70;;;;;;5026809;28;20065;-74
2023/03/29 00:39:47;;;;;;;10.60;5.10;;;8.30;73.70;;;;;;5023859;28;20036;-75
2023/03/29 00:42:14;;;;;;;10.63;6.30;;;8.30;73.70;;;;;;5024037;28;20028;-75
2023/03/29 00:45:05;;;;;;;12.25;5.93;;;8.30;73.80;;;;;;5025907;28;20030;-76
2023/03/29 00:47:37;;;;;;;9.02;5.40;;;8.30;73.90;;;;;;5021047;28;20083;-75
2023/03/29 00:50:16;;;;;;;9.93;4.88;;;8.40;74.00;;;;;;5024521;28;20540;-75
2023/03/29 00:52:47;;;;;;;10.13;5.72;;;8.40;73.90;;;;;;5024283;28;20091;-76
2023/03/29 00:55:20;;;;;;;9.70;5.82;;;8.40;74.00;;;;;;5030870;28;20035;-76
2023/03/29 00:57:48;;;;;;;9.73;5.20;;;8.50;73.70;;;;;;5023344;28;20060;-75
2023/03/29 01:00:19;;;;;;;12.52;5.28;;;8.40;73.70;;;;;;5012098;28;20083;-76
2023/03/29 01:02:52;;;;;;;10.57;5.88;;;8.40;73.70;;;;;;5003804;28;20137;-75
2023/03/29 01:05:29;;;;;;;12.02;5.95;;;8.50;73.80;;;;;;5029790;28;20554;-76
2023/03/29 01:08:05;;;;;;;10.63;5.30;;;8.50;73.90;;;;;;5007770;28;20041;-76
2023/03/29 01:10:55;;;;;;;11.38;5.35;;;8.50;74.10;;;;;;5024611;28;20030;-75
2023/03/29 01:13:33;;;;;;;9.35;5.55;;;8.50;74.10;;;;;;5037613;28;20033;-74
2023/03/29 01:16:00;;;;;;;12.48;6.43;;;8.50;74.10;;;;;;5026845;28;20493;-77
2023/03/29 01:18:26;;;;;;;9.88;5.35;;;8.50;74.10;;;;;;5024937;28;20029;-77
2023/03/29 01:21:24;;;;;;;10.52;5.50;;;8.50;74.10;;;;;;5025932;28;20393;-76
2023/03/29 01:24:05;;;;;;;10.48;5.60;;;8.50;74.20;;;;;;5016779;28;20136;-76
2023/03/29 01:26:55;;;;;;;10.05;5.25;;;8.50;74.10;;;;;;5018166;28;20035;-75
2023/03/29 01:29:30;;;;;;;10.45;5.80;;;8.50;74.30;;;;;;5024989;28;20037;-75
2023/03/29 01:32:11;;;;;;;11.23;5.28;;;8.50;74.50;;;;;;5021099;28;20033;-76
2023/03/29 01:34:51;;;;;;;11.18;5.22;;;8.50;74.50;;;;;;5023214;28;20062;-75
2023/03/29 01:37:36;;;;;;;16.08;5.88;;;8.60;74.40;;;;;;5024275;28;20143;-75
2023/03/29 01:40:04;;;;;;;10.18;5.32;;;8.60;74.50;;;;;;5023720;28;20057;-75
2023/03/29 01:42:52;;;;;;;10.10;5.25;;;8.60;74.60;;;;;;5027165;28;20125;-76
2023/03/29 01:45:33;;;;;;;8.93;5.20;;;8.60;74.60;;;;;;5025314;28;20388;-76
2023/03/29 01:48:17;;;;;;;11.52;4.95;;;8.60;74.70;;;;;;5022140;28;20061;-77
2023/03/29 01:50:59;;;;;;;8.20;4.88;;;8.60;74.60;;;;;;5025137;28;20033;-76
2023/03/29 01:53:41;;;;;;;10.82;5.40;;;8.60;74.70;;;;;;5022581;28;20109;-76
2023/03/29 01:56:13;;;;;;;9.70;5.70;;;8.70;74.70;;;;;;5023026;28;20045;-76
2023/03/29 01:58:46;;;;;;;11.60;6.05;;;8.60;74.90;;;;;;5023675;28;20025;-76
2023/03/29 02:01:16;;;;;;;9.40;5.28;;;8.60;75.10;;;;;;5005580;28;20029;-75
2023/03/29 02:03:48;;;;;;;11.52;5.32;;;8.70;75.00;;;;;;5018554;28;20030;-76
2023/03/29 02:06:18;;;;;;;10.00;5.25;;;8.70;75.10;;;;;;5024413;28;20489;-76
2023/03/29 02:08:45;;;;;;;10.60;5.85;;;8.70;75.00;;;;;;5025766;28;20061;-76
2023/03/29 02:11:11;;;;;;;9.32;5.47;;;8.70;75.10;;;;;;5024839;28;20040;-76
2023/03/29 02:13:36;;;;;;;9.77;5.47;;;8.70;75.20;;;;;;5023688;28;20033;-76
2023/03/29 02:16:13;;;;;;;12.13;5.63;;;8.70;75.30;;;;;;5019889;28;21080;-75
2023/03/29 02:18:42;;;;;;;10.60;5.50;;;8.70;75.50;;;;;;5024938;28;20456;-75
2023/03/29 02:21:13;;;;;;;11.10;5.38;;;8.80;75.50;;;;;;5026253;28;20501;-75
2023/03/29 02:23:47;;;;;;;9.98;5.43;;;8.80;75.50;;;;;;5024928;28;20026;-76
2023/03/29 02:26:14;;;;;;;10.18;5.32;;;8.80;75.50;;;;;;5023251;28;20088;-77
2023/03/29 02:28:41;;;;;;;11.85;5.32;;;8.80;75.60;;;;;;5021030;28;20061;-76
2023/03/29 02:31:17;;;;;;;10.38;6.35;;;8.80;75.50;;;;;;5023485;28;20148;-75
2023/03/29 02:33:52;;;;;;;9.70;5.53;;;8.80;75.60;;;;;;5024563;28;20048;-75
2023/03/29 02:36:33;;;;;;;10.02;5.00;;;8.80;75.60;;;;;;5023894;28;20037;-74
2023/03/29 02:39:02;;;;;;;12.85;5.53;;;8.80;75.70;;;;;;5038503;28;20079;-74
2023/03/29 02:41:29;;;;;;;10.00;5.72;;;8.80;75.70;;;;;;5023333;28;20070;-75
2023/03/29 02:43:56;;;;;;;9.07;5.25;;;8.80;75.90;;;;;;5021928;28;20039;-75
2023/03/29 02:46:22;;;;;;;10.82;5.60;;;8.80;75.90;;;;;;5020909;28;20068;-75
2023/03/29 02:48:50;;;;;;;10.38;5.75;;;8.70;76.10;;;;;;5007196;28;20045;-75
2023/03/29 02:51:19;;;;;;;11.55;5.80;;;8.70;76.20;;;;;;5023340;28;20021;-75
2023/03/29 02:53:55;;;;;;;11.60;5.60;;;8.70;76.30;;;;;;5020107;28;20025;-75
2023/03/29 02:56:21;;;;;;;10.00;5.88;;;8.70;76.50;;;;;;5002600;28;20049;-76
2023/03/29 02:58:46;;;;;;;12.55;6.40;;;8.70;76.40;;;;;;5022356;28;20037;-75
2023/03/29 03:01:13;;;;;;;10.73;6.22;;;8.60;76.60;;;;;;5018714;28;20449;-74
2023/03/29 03:03:40;;;;;;;9.57;5.22;;;8.60;76.60;;;;;;5024297;28;20049;-75
2023/03/29 03:06:06;;;;;;;13.32;5.80;;;8.60;76.80;;;;;;5020904;28;20044;-75
2023/03/29 03:08:32;;;;;;;9.20;5.72;;;8.60;76.90;;;;;;5026596;28;20091;-76
2023/03/29 03:10:58;;;;;;;9.00;5.80;;;8.60;77.00;;;;;;5032945;28;20046;-76
2023/03/29 03:13:24;;;;;;;10.32;5.95;;;8.60;77.10;;;;;;5025479;28;20028;-75
2023/03/29 03:15:50;;;;;;;11.02;6.55;;;8.60;77.20;;;;;;5024117;28;20033;-77
2023/03/29 03:18:15;;;;;;;10.20;5.88;;;8.60;77.20;;;;;;5020764;28;20037;-76
2023/03/29 03:20:45;;;;;;;13.25;6.32;;;8.60;77.20;;;;;;5009341;28;20029;-76
2023/03/29 03:23:11;;;;;;;11.38;6.20;;;8.60;77.30;;;;;;5023800;28;20036;-76
2023/03/29 03:25:37;;;;;;;11.95;6.00;;;8.60;77.40;;;;;;5025804;28;20416;-75
2023/03/29 03:28:03;;;;;;;11.55;6.05;;;8.60;77.50;;;;;;5023136;28;20045;-75
2023/03/29 03:30:29;;;;;;;10.65;6.22;;;8.60;77.70;;;;;;5030175;28;20033;-75
2023/03/29 03:32:55;;;;;;;9.68;5.85;;;8.60;77.60;;;;;;5018784;28;20048;-76
2023/03/29 03:35:21;;;;;;;10.45;6.32;;;8.60;77.60;;;;;;5026072;28;20060;-76
2023/03/29 03:37:47;;;;;;;10.65;6.25;;;8.60;77.60;;;;;;5028800;28;20122;-76
2023/03/29 03:40:13;;;;;;;12.10;6.90;;;8.60;77.60;;;;;;5026576;28;20533;-75
2023/03/29 03:42:40;;;;;;;11.05;6.47;;;8.50;77.80;;;;;;5026609;28;20539;-77
2023/03/29 03:45:07;;;;;;;11.10;6.53;;;8.60;77.80;;;;;;5009260;28;20072;-76
2023/03/29 03:47:36;;;;;;;12.23;7.13;;;8.60;77.90;;;;;;5025317;28;20095;-75
2023/03/29 03:50:03;;;;;;;13.60;7.25;;;8.60;78.00;;;;;;5027359;28;20434;-75
2023/03/29 03:52:29;;;;;;;10.60;6.50;;;8.60;78.00;;;;;;5027322;28;20041;-75
2023/03/29 03:54:55;;;;;;;11.80;7.18;;;8.50;78.10;;;;;;5025947;28;20063;-77
2023/03/29 03:57:21;;;;;;;12.82;6.97;;;8.60;78.30;;;;;;5027109;28;20489;-75
2023/03/29 03:59:47;;;;;;;11.00;7.05;;;8.60;78.30;;;;;;5030306;28;20033;-76
2023/03/29 04:02:15;;;;;;;12.38;6.95;;;8.50;78.50;;;;;;5025066;28;20225;-77
2023/03/29 04:04:41;;;;;;;11.95;6.70;;;8.50;78.60;;;;;;5028377;28;20028;-75
2023/03/29 04:07:07;;;;;;;9.85;6.30;;;8.60;78.70;;;;;;5026257;28;20508;-75
2023/03/29 04:09:33;;;;;;;11.60;6.80;;;8.60;78.60;;;;;;5021968;28;20022;-75
2023/03/29 04:12:00;;;;;;;11.85;6.45;;;8.60;78.50;;;;;;5025221;28;20133;-76
2023/03/29 04:14:26;;;;;;;16.15;7.18;;;8.60;78.40;;;;;;5022955;28;20034;-75
2023/03/29 04:16:53;;;;;;;13.52;6.15;;;8.70;78.50;;;;;;5023287;28;20516;-76
2023/03/29 04:19:19;;;;;;;13.13;7.10;;;8.60;78.50;;;;;;5024526;28;20034;-77
2023/03/29 04:21:46;;;;;;;11.63;6.97;;;8.60;78.50;;;;;;5025276;28;20187;-74
2023/03/29 04:24:12;;;;;;;12.15;6.32;;;8.70;78.50;;;;;;5028488;28;20064;-75
2023/03/29 04:26:38;;;;;;;13.13;6.57;;;8.70;78.70;;;;;;5022040;28;20036;-75
2023/03/29 04:29:04;;;;;;;11.50;6.72;;;8.70;78.60;;;;;;5026211;28;20382;-75
2023/03/29 04:31:31;;;;;;;12.45;6.72;;;8.70;78.70;;;;;;5022240;28;20030;-75
2023/03/29 04:33:57;;;;;;;11.18;6.55;;;8.70;78.90;;;;;;5020611;28;20032;-76
2023/03/29 04:36:22;;;;;;;11.73;6.82;;;8.70;78.90;;;;;;5019848;28;20061;-75
2023/03/29 04:38:51;;;;;;;11.82;7.18;;;8.80;78.90;;;;;;5014336;28;20550;-75
2023/03/29 04:41:19;;;;;;;13.50;6.82;;;8.80;79.00;;;;;;5012151;28;20044;-75
2023/03/29 04:43:45;;;;;;;10.90;6.57;;;8.80;79.10;;;;;;5014167;28;20037;-76
2023/03/29 04:46:14;;;;;;;12.02;6.68;;;8.80;79.10;;;;;;5018830;28;20568;-76
2023/03/29 04:48:40;;;;;;;11.15;6.90;;;8.80;79.40;;;;;;5010347;28;20058;-75
2023/03/29 04:51:06;;;;;;;11.02;6.57;;;8.80;79.50;;;;;;5015483;28;21773;-76
2023/03/29 04:53:33;;;;;;;12.07;7.45;;;8.80;79.50;;;;;;5014861;28;20022;-74
2023/03/29 04:55:58;;;;;;;12.48;7.00;;;8.80;79.60;;;;;;5013162;28;20436;-74
2023/03/29 04:58:27;;;;;;;12.45;7.53;;;8.80;79.80;;;;;;5028910;28;20065;-74
2023/03/29 05:00:58;;;;;;;12.05;7.28;;;8.80;79.80;;;;;;5026580;28;20037;-76
2023/03/29 05:03:25;;;;;;;10.32;6.65;;;8.80;80.10;;;;;;5028770;28;20048;-75
2023/03/29 05:05:52;;;;;;;11.48;7.78;;;8.70;80.10;;;;;;5030145;28;20037;-75
2023/03/29 05:08:17;;;;;;;12.80;7.45;;;8.80;80.20;;;;;;5034474;28;20503;-76
2023/03/29 05:10:43;;;;;;;13.23;7.18;;;8.70;80.40;;;;;;5032343;28;20473;-76
2023/03/29 05:13:09;;;;;;;10.90;7.13;;;8.80;80.50;;;;;;5025300;28;20041;-75
2023/03/29 05:15:35;;;;;;;12.85;7.88;;;8.80;80.60;;;;;;5027260;28;20496;-76
2023/03/29 05:18:01;;;;;;;11.18;6.95;;;8.70;80.60;;;;;;5030371;28;20033;-75
2023/03/29 05:20:28;;;;;;;13.13;7.22;;;8.80;80.80;;;;;;5030015;28;21075;-75
2023/03/29 05:22:54;;;;;;;11.13;7.40;;;8.80;80.80;;;;;;5025444;28;20034;-76
2023/03/29 05:25:20;;;;;;;11.80;6.93;;;8.80;80.90;;;;;;5026829;28;20032;-76
2023/03/29 05:27:46;;;;;;;10.77;7.00;;;8.80;80.90;;;;;;5033007;28;20393;-76
2023/03/29 05:30:14;;;;;;;12.20;6.88;;;8.80;80.90;;;;;;5032307;28;20029;-75
2023/03/29 05:32:43;;;;;;;12.90;7.38;;;8.90;81.00;;;;;;5011714;28;20711;-75
2023/03/29 05:35:10;;;;;;;12.43;7.47;;;8.90;80.90;;;;;;5026516;28;20096;-76
2023/03/29 05:37:36;;;;;;;11.13;7.13;;;8.90;80.80;;;;;;5038049;28;20061;-75
2023/03/29 05:40:08;;;;;;;12.25;7.53;;;8.90;80.50;;;;;;5030468;28;20048;-75
2023/03/29 05:42:35;;;;;;;13.45;7.85;;;9.00;80.50;;;;;;5031629;28;20037;-76
2023/03/29 05:45:01;;;;;;;12.25;7.40;;;8.90;80.40;;;;;;5025054;28;20095;-75
2023/03/29 05:47:28;;;;;;;12.98;7.22;;;9.00;80.40;;;;;;5029394;28;20525;-75
2023/03/29 05:49:53;;;;;;;13.13;7.15;;;9.00;80.60;;;;;;5029222;28;20120;-75
2023/03/29 05:52:19;;;;;;;12.98;7.88;;;9.00;80.80;;;;;;5027963;28;20478;-75
2023/03/29 05:54:45;;;;;;;13.93;7.60;;;9.00;81.20;;;;;;5025686;28;20128;-75
2023/03/29 05:57:11;;;;;;;14.93;8.18;;;9.00;81.40;;;;;;5035765;28;20037;-76
2023/03/29 05:59:37;;;;;;;12.50;7.47;;;9.00;81.60;;;;;;5030497;28;20083;-75
2023/03/29 06:02:03;;;;;;;11.40;7.25;;;9.00;81.90;;;;;;5029502;28;20445;-74
2023/03/29 06:04:29;;;;;;;11.93;7.22;;;9.00;82.00;;;;;;5037507;28;20099;-76
2023/03/29 06:06:55;;;;;;;15.25;7.47;;;9.00;82.20;;;;;;5026949;28;20076;-76
2023/03/29 06:09:21;;;;;;;11.07;7.50;;;9.00;82.20;;;;;;5028688;28;20160;-75
2023/03/29 06:11:47;;;;;;;14.85;7.68;;;9.00;82.40;;;;;;5026580;28;20275;-75
2023/03/29 06:14:13;;;;;;;12.00;7.57;;;9.00;82.60;;;;;;5028274;28;20025;-75
2023/03/29 06:16:39;;;;;;;12.82;7.95;;;9.00;82.70;;;;;;5022331;28;20041;-73
2023/03/29 06:19:06;;;;;;;11.68;7.38;;;9.10;82.60;;;;;;5022054;28;20034;-76
2023/03/29 06:21:32;;;;;;;12.85;7.63;;;9.10;82.50;;;;;;5028819;28;20056;-76
2023/03/29 06:23:58;;;;;;;10.40;7.28;;;9.10;82.30;;;;;;5024934;28;20033;-76
2023/03/29 06:26:26;;;;;;;12.63;7.95;;;9.10;82.10;;;;;;5028118;28;20034;-76
2023/03/29 06:28:52;;;;;;;13.15;7.85;;;9.10;81.90;;;;;;5028106;28;20025;-75
2023/03/29 06:31:18;;;;;;;14.07;8.10;;;9.20;81.80;;;;;;5031016;28;20120;-75
2023/03/29 06:33:45;;;;;;;18.73;8.38;;;9.20;81.70;;;;;;5029477;28;20085;-75
2023/03/29 06:36:14;;;;;;;11.88;7.95;;;9.20;81.60;;;;;;5024944;28;20099;-73
2023/03/29 06:38:40;;;;;;;12.95;7.32;;;9.30;81.80;;;;;;5022821;28;20022;-75
2023/03/29 06:41:09;;;;;;;12.55;8.07;;;9.30;81.60;;;;;;5029134;28;20132;-74
2023/03/29 06:43:35;;;;;;;15.00;8.40;;;9.30;81.50;;;;;;5030028;28;20026;-73
2023/03/29 06:46:01;;;;;;;13.55;7.80;;;9.30;81.50;;;;;;5022155;28;20052;-73
2023/03/29 06:48:28;;;;;;;13.63;7.65;;;9.30;81.40;;;;;;5025788;28;20057;-74
2023/03/29 06:50:53;;;;;;;12.93;7.88;;;9.40;81.40;;;;;;5009029;28;20629;-73
2023/03/29 06:53:20;;;;;;;14.55;8.20;;;9.40;81.20;;;;;;5028208;28;20148;-73
2023/03/29 06:55:46;;;;;;;14.85;8.52;;;9.50;81.20;;;;;;5027430;28;20026;-74
2023/03/29 06:58:12;;;;;;;13.02;7.75;;;9.60;81.10;;;;;;5029185;28;20044;-73
2023/03/29 07:00:38;;;;;;;13.13;7.68;;;9.60;80.90;;;;;;5030276;28;20037;-74
2023/03/29 07:03:08;;;;;;;11.45;7.32;;;9.70;80.60;;;;;;5033327;28;20029;-72
2023/03/29 07:05:35;;;;;;;14.73;8.63;;;9.80;80.40;;;;;;5006451;28;20026;-73
2023/03/29 07:10:36;;;;;;;11.23;7.70;;;9.90;79.90;;;;;;5028086;28;20029;-73
2023/03/29 07:13:04;;;;;;;16.20;7.55;;;9.90;79.70;;;;;;5034775;28;20365;-73
2023/03/29 07:15:31;;;;;;;14.82;7.88;;;10.00;79.50;;;;;;5042442;28;20044;-73
2023/03/29 07:17:57;;;;;;;12.07;8.00;;;10.00;79.60;;;;;;5042658;28;20080;-73
2023/03/29 07:20:25;;;;;;;15.00;8.27;;;10.10;79.30;;;;;;5030455;28;20056;-73
2023/03/29 07:22:51;;;;;;;12.57;7.68;;;10.10;79.10;;;;;;5028364;28;20079;-73
2023/03/29 07:25:19;;;;;;;13.80;8.45;;;10.30;78.90;;;;;;5030162;28;20567;-74
2023/03/29 07:27:45;;;;;;;14.07;8.15;;;10.30;78.80;;;;;;5024694;28;20113;-74
2023/03/29 07:30:15;;;;;;;13.65;7.80;;;10.40;78.70;;;;;;5029103;28;20422;-73
2023/03/29 07:32:43;;;;;;;12.30;7.80;;;10.40;78.70;;;;;;5028011;28;20044;-74
2023/03/29 07:35:10;;;;;;;14.20;7.82;;;10.40;78.80;;;;;;5021919;28;20050;-74
2023/03/29 07:37:36;;;;;;;13.45;8.35;;;10.50;78.70;;;;;;5027951;28;20385;-73
2023/03/29 07:40:15;;;;;;;14.43;8.68;;;10.50;78.50;;;;;;5031649;28;20025;-73
2023/03/29 07:42:46;;;;;;;15.02;7.88;;;10.60;78.40;;;;;;5028148;28;20022;-73
2023/03/29 07:45:15;;;;;;;14.13;8.07;;;10.50;78.40;;;;;;5040180;28;20075;-71
2023/03/29 07:47:41;;;;;;;13.25;8.07;;;10.50;78.70;;;;;;5028692;28;20057;-72
2023/03/29 07:50:08;;;;;;;12.85;7.90;;;10.60;78.50;;;;;;5016616;28;20055;-73
2023/03/29 07:52:35;;;;;;;12.43;7.72;;;10.60;78.30;;;;;;4963719;28;20057;-72
2023/03/29 07:55:01;;;;;;;12.73;8.45;;;10.70;78.30;;;;;;4970849;28;20509;-72
2023/03/29 07:57:26;;;;;;;13.68;9.30;;;10.60;78.20;;;;;;4992282;28;20035;-72
2023/03/29 07:59:53;;;;;;;14.77;9.02;;;10.70;78.20;;;;;;4984845;28;20557;-72
2023/03/29 08:02:19;;;;;;;12.85;8.50;;;10.70;78.30;;;;;;4988147;28;20096;-72
2023/03/29 08:04:46;;;;;;;14.52;8.68;;;10.80;78.20;;;;;;4987041;28;20113;-73
2023/03/29 08:07:12;;;;;;;14.05;7.85;;;10.90;78.00;;;;;;4989495;28;20387;-72
2023/03/29 08:09:38;;;;;;;13.15;7.82;;;10.90;78.10;;;;;;4987842;28;20466;-72
2023/03/29 08:12:04;;;;;;;12.30;7.75;;;11.10;77.80;;;;;;4974706;28;20066;-72
2023/03/29 08:14:30;;;;;;;14.43;8.15;;;11.10;77.90;;;;;;4967269;28;20089;-72
2023/03/29 08:16:56;;;;;;;13.68;7.72;;;11.30;77.70;;;;;;4965427;28;20038;-72
2023/03/29 08:19:22;;;;;;;14.90;8.38;;;11.40;77.20;;;;;;4968999;28;20376;-72
2023/03/29 08:21:47;;;;;;;18.00;8.60;;;11.50;76.90;;;;;;4985020;28;20590;-72
2023/03/29 08:24:13;;;;;;;14.32;8.20;;;11.70;77.10;;;;;;5008885;28;20025;-72
2023/03/29 08:26:39;;;;;;;13.70;7.88;;;11.80;76.50;;;;;;5003930;28;20050;-72
2023/03/29 08:29:07;;;;;;;14.57;7.78;;;12.00;76.10;;;;;;5012746;28;20022;-72
2023/03/29 08:31:32;;;;;;;16.25;8.35;;;12.10;75.80;;;;;;5008423;28;20034;-72
2023/03/29 08:33:58;;;;;;;15.70;8.40;;;12.20;75.70;;;;;;5008311;28;20032;-72
2023/03/29 08:36:24;;;;;;;16.02;8.65;;;12.20;75.50;;;;;;5013784;28;20061;-73
2023/03/29 08:38:50;;;;;;;13.65;8.32;;;12.20;75.70;;;;;;5000050;28;20030;-72
2023/03/29 08:41:46;;;;;;;14.63;8.00;;;12.10;76.10;;;;;;5008104;28;20057;-72
2023/03/29 08:44:20;;;;;;;;;;;12.30;76.00;;;;;;5006540;28;20121;-72
2023/03/29 08:47:22;;;;;;;16.33;8.32;;;12.40;76.40;;;;;;5006449;28;20495;-72
2023/03/29 08:49:53;;;;;;;14.05;8.68;;;12.60;75.90;;;;;;5013358;28;20086;-72
2023/03/29 08:52:44;;;;;;;13.70;9.40;;;12.80;75.30;;;;;;5020156;28;20045;-72
2023/03/29 08:55:25;;;;;;;14.57;9.32;;;12.90;75.20;;;;;;5001665;28;20034;-72
2023/03/29 08:57:52;;;;;;;17.05;9.82;;;13.00;75.00;;;;;;5007412;28;20394;-72
2023/03/29 09:00:32;;;;;;;21.67;9.90;;;13.10;74.90;;;;;;5019243;28;20042;-72
2023/03/29 09:03:01;;;;;;;15.20;8.80;;;13.20;74.90;;;;;;5006814;28;20271;-72
2023/03/29 09:05:33;;;;;;;14.02;8.63;;;13.40;74.30;;;;;;5007239;28;20101;-72
2023/03/29 09:08:00;;;;;;;14.68;9.68;;;13.60;73.80;;;;;;4990246;28;20486;-73
2023/03/29 09:10:55;;;;;;;13.52;9.18;;;13.60;73.60;;;;;;5003916;28;20087;-72
2023/03/29 09:13:46;;;;;;;13.98;8.80;;;13.70;73.90;;;;;;5007371;28;20053;-73
2023/03/29 09:16:25;;;;;;;13.80;8.95;;;13.90;73.70;;;;;;5012030;28;20041;-72
2023/03/29 09:19:02;;;;;;;14.35;9.63;;;14.00;73.50;;;;;;5004355;28;20034;-72
2023/03/29 09:21:56;;;;;;;14.55;8.60;;;14.00;73.60;;;;;;5006089;28;20088;-71
2023/03/29 09:24:50;;;;;;;13.52;8.80;;;14.10;73.60;;;;;;5004697;28;20026;-72
2023/03/29 09:27:27;;;;;;;14.68;8.70;;;14.30;72.90;;;;;;5003579;28;20042;-72
2023/03/29 09:30:05;;;;;;;13.05;8.07;;;14.30;72.50;;;;;;5005421;28;20552;-73
2023/03/29 09:32:36;;;;;;;13.18;8.43;;;14.30;73.20;;;;;;5010417;28;20034;-72
2023/03/29 09:35:26;;;;;;;13.82;8.93;;;14.60;72.50;;;;;;5000583;28;20030;-73
2023/03/29 09:37:53;;;;;;;13.98;9.20;;;14.70;72.50;;;;;;4998853;28;20112;-74
2023/03/29 09:40:26;;;;;;;14.18;8.80;;;14.80;71.90;;;;;;5020241;28;20389;-71
2023/03/29 09:42:53;;;;;;;13.35;9.43;;;15.00;71.70;;;;;;5003062;28;20030;-73
2023/03/29 09:45:19;;;;;;;14.48;8.85;;;15.10;71.20;;;;;;5003455;28;20030;-76
2023/03/29 09:48:18;;;;;;;12.85;8.88;;;15.10;71.00;;;;;;5005715;28;20053;-78
2023/03/29 09:50:50;;;;;;;12.30;9.10;;;15.10;71.40;;;;;;4941902;28;20037;-76
2023/03/29 09:53:18;;;;;;;13.02;9.10;;;15.00;71.60;;;;;;5006743;28;20029;-75
2023/03/29 09:55:45;;;;;;;12.75;8.80;;;14.90;71.90;;;;;;5007036;28;20022;-75
2023/03/29 09:58:21;;;;;;;15.07;8.98;;;14.90;72.10;;;;;;5004784;28;20053;-75
2023/03/29 10:00:48;;;;;;;13.93;8.82;;;14.90;72.30;;;;;;5001368;28;20502;-73
2023/03/29 10:03:23;;;;;;;14.98;9.82;;;15.00;72.30;;;;;;5020303;28;20406;-75
2023/03/29 10:05:52;;;;;;;12.27;8.25;;;15.00;72.20;;;;;;5004077;28;20022;-74
2023/03/29 10:08:29;;;;;;;12.88;8.35;;;15.10;72.30;;;;;;5005320;28;20056;-74
2023/03/29 10:10:59;;;;;;;12.32;8.70;;;15.20;71.70;;;;;;5001210;28;20038;-73
2023/03/29 10:13:31;;;;;;;14.52;9.23;;;15.10;72.10;;;;;;5004877;28;20026;-72
2023/03/29 10:16:04;;;;;;;14.30;9.70;;;15.10;72.10;;;;;;5007102;28;20042;-74
2023/03/29 10:18:39;;;;;;;13.60;9.25;;;15.00;72.50;;;;;;4994246;28;20395;-73
2023/03/29 10:21:06;;;;;;;14.82;9.70;;;15.10;72.90;;;;;;4989968;28;20038;-73
2023/03/29 10:23:35;;;;;;;14.48;9.85;;;15.10;72.40;;;;;;4992338;28;20586;-75
2023/03/29 10:26:03;;;;;;;14.75;9.75;;;15.10;72.10;;;;;;4992428;28;20034;-74
2023/03/29 10:28:30;;;;;;;12.07;8.63;;;15.20;72.40;;;;;;4993050;28;20034;-75
2023/03/29 10:30:59;;;;;;;13.02;9.07;;;15.40;72.10;;;;;;4996596;28;20609;-75
2023/03/29 10:33:32;;;;;;;14.40;8.98;;;15.60;71.50;;;;;;4999347;28;20056;-73
2023/03/29 10:36:01;;;;;;;14.68;8.90;;;15.80;70.40;;;;;;4992170;28;20038;-73
2023/03/29 10:38:28;;;;;;;13.27;8.23;;;15.80;70.00;;;;;;4991126;28;20104;-73
2023/03/29 10:41:07;;;;;;;13.73;9.30;;;15.80;70.20;;;;;;4991875;28;20104;-74
2023/03/29 10:43:41;;;;;;;14.57;8.50;;;16.00;70.00;;;;;;4982723;28;20454;-74
2023/03/29 10:46:18;;;;;;;14.85;8.57;;;15.90;70.00;;;;;;4993222;28;20416;-74
2023/03/29 10:48:54;;;;;;;11.35;8.63;;;15.80;69.80;;;;;;4992535;28;20137;-74
2023/03/29 10:51:22;;;;;;;13.57;8.48;;;15.60;70.70;;;;;;4996629;28;20034;-73
2023/03/29 10:53:48;;;;;;;13.30;9.00;;;15.60;71.40;;;;;;4995960;28;20065;-73
2023/03/29 10:56:37;;;;;;;11.77;8.63;;;15.70;70.90;;;;;;4995573;28;20023;-75
2023/03/29 10:59:26;;;;;;;12.70;7.88;;;15.60;71.00;;;;;;4994997;28;20063;-74
2023/03/29 11:02:06;;;;;;;12.20;7.80;;;15.70;70.90;;;;;;4996894;28;20051;-75
2023/03/29 11:04:33;;;;;;;15.73;8.90;;;16.00;71.00;;;;;;4992344;28;20108;-74
2023/03/29 11:07:25;;;;;;;12.70;8.07;;;16.00;70.80;;;;;;4993390;28;20040;-74
2023/03/29 11:10:23;;;;;;;13.25;8.35;;;16.10;70.70;;;;;;4993919;28;20023;-75
2023/03/29 11:13:00;;;;;;;12.13;7.43;;;16.20;70.70;;;;;;4992131;28;20774;-74
2023/03/29 11:15:38;;;;;;;12.27;8.13;;;16.40;70.30;;;;;;4995054;28;20052;-75
2023/03/29 11:18:27;;;;;;;11.23;7.18;;;16.40;70.20;;;;;;4992733;28;20052;-72
2023/03/29 11:21:02;;;;;;;12.20;6.78;;;16.50;69.80;;;;;;4991544;28;20088;-74
2023/03/29 11:23:33;;;;;;;11.10;7.25;;;16.60;69.20;;;;;;4992951;28;20398;-74
2023/03/29 11:26:30;;;;;;;12.50;6.60;;;16.60;69.30;;;;;;4991014;28;20049;-75
2023/03/29 11:28:57;;;;;;;11.60;7.10;;;16.70;69.20;;;;;;4981120;28;20022;-75
2023/03/29 11:31:33;;;;;;;11.80;6.38;;;16.90;69.10;;;;;;4997620;28;20053;-75
2023/03/29 11:34:20;;;;;;;11.65;6.55;;;17.10;67.90;;;;;;4996980;28;20037;-75
2023/03/29 11:36:49;;;;;;;9.27;6.18;;;17.40;67.90;;;;;;5016274;28;20525;-75
2023/03/29 11:39:32;;;;;;;10.90;5.97;;;17.40;67.20;;;;;;5009133;28;20065;-73
2023/03/29 11:42:10;;;;;;;10.43;6.28;;;17.50;67.10;;;;;;5015447;28;20459;-74
2023/03/29 11:44:39;;;;;;;11.15;5.85;;;17.50;67.30;;;;;;5007190;28;20036;-73
2023/03/29 11:47:21;;;;;;;12.20;5.32;;;17.30;68.20;;;;;;5015383;28;20402;-71
2023/03/29 11:49:51;;;;;;;9.80;5.57;;;17.10;68.60;;;;;;5012423;28;20026;-73
2023/03/29 11:52:19;;;;;;;9.07;5.30;;;17.00;69.40;;;;;;5007809;28;20041;-72
2023/03/29 11:54:55;;;;;;;7.70;4.38;;;17.10;69.00;;;;;;5015182;28;20026;-73
2023/03/29 11:57:32;;;;;;;9.40;4.38;;;17.10;69.20;;;;;;5011575;28;20038;-72
2023/03/29 12:00:11;;;;;;;8.30;3.60;;;17.30;68.60;;;;;;5002856;28;20068;-73
2023/03/29 12:02:48;;;;;;;7.13;3.30;;;17.20;67.80;;;;;;5004376;28;20068;-72
2023/03/29 12:05:37;;;;;;;8.60;3.78;;;17.20;68.30;;;;;;5006663;28;20053;-72
2023/03/29 12:08:07;;;;;;;8.85;4.10;;;17.40;67.90;;;;;;4997433;28;20490;-73
2023/03/29 12:10:50;;;;;;;7.40;4.05;;;17.60;67.80;;;;;;5004631;28;20037;-72
2023/03/29 12:13:21;;;;;;;6.78;3.90;;;17.70;67.90;;;;;;5010649;28;20026;-73
2023/03/29 12:15:54;;;;;;;7.90;3.97;;;17.80;67.70;;;;;;5009153;28;20033;-74
2023/03/29 12:18:41;;;;;;;7.35;3.75;;;18.00;67.30;;;;;;5012917;28;20030;-73
2023/03/29 12:21:29;;;;;;;7.95;4.55;;;18.30;67.70;;;;;;5016053;28;20057;-73
2023/03/29 12:23:57;;;;;;;8.75;4.93;;;18.60;66.10;;;;;;5015635;28;20022;-73
2023/03/29 12:26:26;;;;;;;9.77;4.95;;;18.60;65.40;;;;;;5008217;28;20486;-73
2023/03/29 12:29:10;;;;;;;9.70;4.80;;;18.40;65.80;;;;;;5008368;28;20037;-74
2023/03/29 12:31:39;;;;;;;12.80;6.20;;;18.40;66.30;;;;;;5008432;28;20459;-72
2023/03/29 12:34:31;;;;;;;9.25;5.07;;;18.10;67.50;;;;;;5014774;28;20021;-73
2023/03/29 12:37:11;;;;;;;9.05;4.53;;;17.80;68.60;;;;;;5003895;28;20026;-73
2023/03/29 12:39:38;;;;;;;8.98;5.65;;;17.70;69.40;;;;;;5004678;28;20483;-75
2023/03/29 12:42:22;;;;;;;7.85;4.80;;;17.80;69.40;;;;;;5014536;28;20057;-73
2023/03/29 12:44:52;;;;;;;7.90;4.57;;;17.60;70.00;;;;;;5015099;28;20036;-73
2023/03/29 12:47:22;;;;;;;7.35;4.38;;;17.40;70.80;;;;;;5008995;28;20046;-74
2023/03/29 12:49:59;;;;;;;9.30;5.18;;;17.50;70.80;;;;;;5008400;28;20278;-74
2023/03/29 12:52:34;;;;;;;9.05;4.38;;;17.30;71.40;;;;;;5013096;28;20041;-73
2023/03/29 12:55:03;;;;;;;11.63;5.28;;;17.20;71.90;;;;;;5012525;28;20032;-74
2023/03/29 12:58:03;;;;;;;7.60;4.28;;;17.10;72.10;;;;;;5007791;28;20026;-73
2023/03/29 13:00:44;;;;;;;9.32;4.60;;;17.20;72.50;;;;;;5010854;28;20088;-71
2023/03/29 13:03:33;;;;;;;8.05;5.05;;;17.50;72.10;;;;;;5013724;28;20565;-72
2023/03/29 13:06:05;;;;;;;9.50;5.43;;;17.60;71.50;;;;;;5010522;28;20477;-73
2023/03/29 13:08:38;;;;;;;8.15;4.80;;;17.60;71.00;;;;;;5022445;28;20121;-74